Terminal Aerodrome Forecast
Issued by NWS

Home | Current Version | Previous Version | Text Only | Print | Product List | Glossary On
Versions: 1 2 3 4 5 6 7 8 9 10 11 12 13
898
FTUS45 KRIW 221725
TAFLND
TAF
KLND 221725Z 2218/2318 VRB06KT P6SM BKN200 WS015/27050KT
      TEMPO 2218/2219 26014G28KT
     FM221900 27025G40KT P6SM FEW090 BKN200
     FM230100 26015G25KT P6SM FEW090 BKN200
     FM230600 28011KT P6SM FEW090 BKN200
     FM231200 02008KT P6SM BKN050=

USA.gov is the U.S. government's official web portal to all federal, state and local government web resources and services.